createdAt,value
2018-09-11T00:01:10.069Z,99403.45
2018-09-11T00:03:38.116Z,99407.06
2018-09-11T00:06:06.376Z,99408.55
2018-09-11T00:08:34.499Z,99409.04
2018-09-11T00:11:02.599Z,99413.40
2018-09-11T00:13:30.691Z,99409.14
2018-09-11T00:15:58.771Z,99413.65
2018-09-11T00:18:26.968Z,99416.80
2018-09-11T00:20:55.040Z,99409.09
2018-09-11T00:23:23.128Z,99409.41
2018-09-11T00:25:51.200Z,99411.80
2018-09-11T00:28:19.288Z,99413.14
2018-09-11T00:30:48.339Z,99410.15
2018-09-11T00:33:16.431Z,99407.16
2018-09-11T00:35:44.500Z,99398.87
2018-09-11T00:38:12.592Z,99398.36
2018-09-11T00:40:41.512Z,99406.47
2018-09-11T00:43:09.580Z,99397.86
2018-09-11T00:45:37.650Z,99405.60
2018-09-11T00:48:05.782Z,99408.08
2018-09-11T00:50:33.856Z,99408.72
2018-09-11T00:53:01.951Z,99407.88
2018-09-11T00:55:30.032Z,99402.29
2018-09-11T00:57:58.147Z,99412.91
2018-09-11T01:00:26.237Z,99416.08
2018-09-11T01:02:54.335Z,99415.11
2018-09-11T01:05:22.581Z,99415.90
2018-09-11T01:07:50.751Z,99414.42
2018-09-11T01:10:18.941Z,99415.56
2018-09-11T01:12:46.964Z,99416.29
2018-09-11T01:15:15.057Z,99419.01
2018-09-11T01:17:43.146Z,99420.06
2018-09-11T01:20:11.255Z,99423.95
2018-09-11T01:22:39.311Z,99423.34
2018-09-11T01:25:07.463Z,99422.47
2018-09-11T01:27:35.544Z,99429.80
2018-09-11T01:30:03.648Z,99433.02
2018-09-11T01:32:31.731Z,99429.55
2018-09-11T01:34:59.836Z,99425.65
2018-09-11T01:37:27.934Z,99428.81
2018-09-11T01:39:56.023Z,99427.13
2018-09-11T01:42:24.117Z,99430.97
2018-09-11T01:44:52.215Z,99433.91
2018-09-11T01:47:20.280Z,99436.39
2018-09-11T01:49:48.360Z,99437.36
2018-09-11T01:52:16.427Z,99442.88
2018-09-11T01:54:44.625Z,99443.91
2018-09-11T01:57:12.696Z,99445.16
2018-09-11T01:59:40.783Z,99437.02
2018-09-11T02:02:08.870Z,99447.52
2018-09-11T02:04:36.983Z,99452.81
2018-09-11T02:07:05.151Z,99461.20
2018-09-11T02:09:33.228Z,99453.95
2018-09-11T02:12:01.304Z,99453.50
2018-09-11T02:14:29.413Z,99450.38
2018-09-11T02:16:57.506Z,99459.04
2018-09-11T02:19:25.593Z,99453.45
2018-09-11T02:21:53.680Z,99453.11
2018-09-11T02:24:21.763Z,99454.07
2018-09-11T02:26:49.866Z,99454.44
2018-09-11T02:29:17.963Z,99454.63
2018-09-11T02:31:46.214Z,99458.72
2018-09-11T02:34:14.306Z,99455.95
2018-09-11T02:36:42.408Z,99454.49
2018-09-11T02:39:12.178Z,99454.55
2018-09-11T02:41:40.332Z,99458.80
2018-09-11T02:44:09.068Z,99454.49
2018-09-11T02:46:37.183Z,99462.57
2018-09-11T02:49:05.325Z,99467.02
2018-09-11T02:51:33.967Z,99465.43
2018-09-11T02:54:02.359Z,99462.60
2018-09-11T02:56:30.453Z,99464.95
2018-09-11T02:58:58.569Z,99467.59
2018-09-11T03:01:26.681Z,99479.47
2018-09-11T03:03:54.874Z,99480.00
2018-09-11T03:06:22.974Z,99479.77
2018-09-11T03:08:51.058Z,99482.20
2018-09-11T03:11:19.212Z,99486.98
2018-09-11T03:13:48.171Z,99486.47
2018-09-11T03:16:16.263Z,99494.56
2018-09-11T03:18:44.368Z,99487.05
2018-09-11T03:21:12.480Z,99497.64
2018-09-11T03:23:40.582Z,99499.06
2018-09-11T03:26:08.701Z,99499.21
2018-09-11T03:28:36.793Z,99501.42
2018-09-11T03:31:05.496Z,99503.06
2018-09-11T03:33:33.598Z,99507.13
2018-09-11T03:36:01.729Z,99509.81
2018-09-11T03:38:29.815Z,99510.48
2018-09-11T03:40:57.919Z,99510.05
2018-09-11T03:43:26.006Z,99511.61
2018-09-11T03:45:54.078Z,99510.48
2018-09-11T03:48:22.390Z,99511.13
2018-09-11T03:50:51.499Z,99512.22
2018-09-11T03:53:19.575Z,99516.28
2018-09-11T03:55:48.054Z,99515.78
2018-09-11T03:58:17.068Z,99515.20
2018-09-11T04:00:45.191Z,99511.81
2018-09-11T04:03:13.343Z,99512.77
2018-09-11T04:05:41.443Z,99518.53
2018-09-11T04:08:09.563Z,99514.13
2018-09-11T04:10:37.687Z,99517.89
2018-09-11T04:13:05.826Z,99522.53
2018-09-11T04:15:33.935Z,99517.27
2018-09-11T04:18:02.039Z,99522.56
2018-09-11T04:20:30.136Z,99512.73
2018-09-11T04:22:58.256Z,99511.41
2018-09-11T04:25:26.357Z,99505.22
2018-09-11T04:27:54.459Z,99511.02
2018-09-11T04:30:22.717Z,99515.34
2018-09-11T04:32:50.807Z,99521.52
2018-09-11T04:35:18.900Z,99519.02
2018-09-11T04:37:47.006Z,99515.21
2018-09-11T04:40:15.104Z,99519.52
2018-09-11T04:42:43.253Z,99519.78
2018-09-11T04:45:11.395Z,99516.93
2018-09-11T04:47:39.499Z,99512.25
2018-09-11T04:50:07.664Z,99516.81
2018-09-11T04:52:35.779Z,99520.47
2018-09-11T04:55:03.892Z,99522.27
2018-09-11T04:57:31.995Z,99518.30
2018-09-11T05:00:00.084Z,99519.38
2018-09-11T05:02:28.189Z,99521.66
2018-09-11T05:04:56.300Z,99513.13
2018-09-11T05:07:24.719Z,99517.92
2018-09-11T05:09:52.830Z,99524.14
2018-09-11T05:12:20.963Z,99529.78
2018-09-11T05:14:49.067Z,99531.70
2018-09-11T05:17:17.189Z,99532.28
2018-09-11T05:19:45.285Z,99539.11
2018-09-11T05:22:13.371Z,99539.81
2018-09-11T05:24:41.485Z,99541.58
2018-09-11T05:27:09.582Z,99546.98
2018-09-11T05:29:37.703Z,99546.70
2018-09-11T05:32:05.819Z,99537.07
2018-09-11T05:34:33.924Z,99543.17
2018-09-11T05:37:02.030Z,99541.45
2018-09-11T05:39:30.135Z,99548.45
2018-09-11T05:41:58.237Z,99546.13
2018-09-11T05:44:26.492Z,99556.91
2018-09-11T05:46:54.595Z,99555.25
2018-09-11T05:49:22.706Z,99562.20
2018-09-11T05:51:50.812Z,99562.30
2018-09-11T05:54:18.905Z,99562.06
2018-09-11T05:56:47.008Z,99556.67
2018-09-11T05:59:15.121Z,99560.59
2018-09-11T06:01:43.242Z,99553.56
2018-09-11T06:04:11.359Z,99559.12
2018-09-11T06:06:39.439Z,99556.01
2018-09-11T06:09:10.412Z,99563.20
2018-09-11T06:11:38.519Z,99552.73
2018-09-11T06:14:06.683Z,99549.20
2018-09-11T06:16:34.816Z,99548.28
2018-09-11T06:19:02.964Z,99556.12
2018-09-11T06:21:31.077Z,99557.31
2018-09-11T06:23:59.187Z,99560.02
2018-09-11T06:26:27.779Z,99556.65
2018-09-11T06:28:56.328Z,99566.17
2018-09-11T06:31:24.439Z,99569.39
2018-09-11T06:33:52.551Z,99564.13
2018-09-11T06:36:20.668Z,99566.30
2018-09-11T06:38:48.787Z,99565.30
2018-09-11T06:41:16.948Z,99571.23
2018-09-11T06:43:45.017Z,99568.58
2018-09-11T06:46:13.134Z,99565.75
2018-09-11T06:48:41.220Z,99567.92
2018-09-11T06:51:09.334Z,99554.37
2018-09-11T06:53:37.488Z,99561.38
2018-09-11T06:56:05.706Z,99554.56
2018-09-11T06:58:33.805Z,99555.73
2018-09-11T07:01:01.911Z,99551.83
2018-09-11T07:03:30.028Z,99552.27
2018-09-11T07:05:58.874Z,99562.36
2018-09-11T07:08:27.024Z,99561.47
2018-09-11T07:10:55.097Z,99557.86
2018-09-11T07:13:23.199Z,99561.53
2018-09-11T07:15:51.306Z,99557.86
2018-09-11T07:18:19.416Z,99557.56
2018-09-11T07:20:47.524Z,99558.73
2018-09-11T07:23:15.712Z,99561.34
2018-09-11T07:25:43.869Z,99560.23
2018-09-11T07:28:11.960Z,99559.83
2018-09-11T07:30:40.076Z,99570.52
2018-09-11T07:33:08.223Z,99568.97
2018-09-11T07:35:36.334Z,99572.66
2018-09-11T07:38:04.423Z,99566.70
2018-09-11T07:40:32.507Z,99567.33
2018-09-11T07:43:00.947Z,99565.95
2018-09-11T07:45:29.958Z,99565.68
2018-09-11T07:47:58.075Z,99569.40
2018-09-11T07:50:26.146Z,99566.43
2018-09-11T07:52:54.286Z,99559.16
2018-09-11T07:55:22.318Z,99560.34
2018-09-11T07:57:50.595Z,99561.70
2018-09-11T08:00:18.668Z,99564.41
2018-09-11T08:02:46.771Z,99559.90
2018-09-11T08:05:14.887Z,99562.05
2018-09-11T08:07:42.966Z,99565.36
2018-09-11T08:10:11.091Z,99565.48
2018-09-11T08:12:39.173Z,99564.64
2018-09-11T08:15:07.708Z,99560.63
2018-09-11T08:17:35.815Z,99567.27
2018-09-11T08:20:03.883Z,99556.15
2018-09-11T08:22:31.965Z,99566.96
2018-09-11T08:25:00.043Z,99563.36
2018-09-11T08:27:28.476Z,99565.73
2018-09-11T08:29:56.969Z,99564.16
2018-09-11T08:32:25.068Z,99567.86
2018-09-11T08:34:53.139Z,99568.89
2018-09-11T08:37:21.252Z,99564.64
2018-09-11T08:39:49.351Z,99573.02
2018-09-11T08:42:17.459Z,99570.12
2018-09-11T08:44:45.582Z,99569.81
2018-09-11T08:47:13.689Z,99575.41
2018-09-11T08:49:41.795Z,99580.02
2018-09-11T08:52:09.969Z,99576.45
2018-09-11T08:54:38.003Z,99570.56
2018-09-11T08:57:06.212Z,99574.27
2018-09-11T08:59:34.308Z,99567.44
2018-09-11T09:02:02.443Z,99573.02
2018-09-11T09:04:30.549Z,99568.45
2018-09-11T09:06:58.651Z,99561.76
2018-09-11T09:09:26.745Z,99561.14
2018-09-11T09:11:54.861Z,99559.45
2018-09-11T09:14:22.964Z,99554.88
2018-09-11T09:16:51.064Z,99551.63
2018-09-11T09:19:19.178Z,99562.18
2018-09-11T09:21:47.284Z,99564.25
2018-09-11T09:24:15.402Z,99563.88
2018-09-11T09:26:43.508Z,99565.64
2018-09-11T09:29:11.615Z,99571.42
2018-09-11T09:31:39.725Z,99568.09
2018-09-11T09:34:07.902Z,99567.84
2018-09-11T09:36:36.089Z,99565.33
2018-09-11T09:39:04.769Z,99566.13
2018-09-11T09:41:33.236Z,99564.30
2018-09-11T09:44:01.351Z,99554.16
2018-09-11T09:46:29.387Z,99552.13
2018-09-11T09:48:57.473Z,99548.78
2018-09-11T09:51:25.578Z,99547.34
2018-09-11T09:53:53.675Z,99544.34
2018-09-11T09:56:21.743Z,99547.98
2018-09-11T09:58:49.789Z,99545.53
2018-09-11T10:01:23.188Z,99546.97
2018-09-11T10:03:51.286Z,99536.66
2018-09-11T10:06:19.376Z,99532.44
2018-09-11T10:08:47.457Z,99535.09
2018-09-11T10:11:15.540Z,99523.88
2018-09-11T10:13:43.616Z,99527.59
2018-09-11T10:16:11.688Z,99517.27
2018-09-11T10:18:39.763Z,99525.33
2018-09-11T10:21:07.897Z,99522.07
2018-09-11T10:23:36.027Z,99520.42
2018-09-11T10:26:04.622Z,99517.66
2018-09-11T10:28:32.694Z,99519.98
2018-09-11T10:31:00.899Z,99519.93
2018-09-11T10:33:29.006Z,99521.84
2018-09-11T10:35:57.089Z,99520.87
2018-09-11T10:38:25.210Z,99520.22
2018-09-11T10:41:00.398Z,99510.52
2018-09-11T10:43:28.514Z,99509.02
2018-09-11T10:45:56.639Z,99512.48
2018-09-11T10:48:24.728Z,99510.44
2018-09-11T10:50:52.904Z,99504.25
2018-09-11T10:53:21.007Z,99497.09
2018-09-11T10:55:49.169Z,99502.48
2018-09-11T10:58:17.241Z,99500.30
2018-09-11T11:00:45.348Z,99490.23
2018-09-11T11:03:13.453Z,99490.27
2018-09-11T11:05:41.560Z,99491.71
2018-09-11T11:08:09.668Z,99485.54
2018-09-11T11:10:37.790Z,99493.25
2018-09-11T11:13:06.364Z,99477.89
2018-09-11T11:15:34.467Z,99492.52
2018-09-11T11:18:02.584Z,99480.80
2018-09-11T11:20:30.775Z,99482.72
2018-09-11T11:22:59.050Z,99470.09
2018-09-11T11:25:27.138Z,99468.84
2018-09-11T11:27:55.232Z,99465.88
2018-09-11T11:30:23.358Z,99466.59
2018-09-11T11:32:51.554Z,99463.06
2018-09-11T11:35:19.664Z,99460.67
2018-09-11T11:37:48.006Z,99464.20
2018-09-11T11:40:16.101Z,99459.97
2018-09-11T11:42:44.284Z,99457.77
2018-09-11T11:45:12.298Z,99456.11
2018-09-11T11:47:40.388Z,99453.97
2018-09-11T11:50:08.479Z,99450.12
2018-09-11T11:52:37.364Z,99447.88
2018-09-11T11:55:05.576Z,99441.78
2018-09-11T11:57:33.620Z,99443.91
2018-09-11T12:00:01.754Z,99433.98
2018-09-11T12:02:29.854Z,99432.81
2018-09-11T12:04:58.191Z,99424.09
2018-09-11T12:07:26.552Z,99425.66
2018-09-11T12:09:54.652Z,99436.73
2018-09-11T12:12:22.763Z,99430.04
2018-09-11T12:14:50.862Z,99429.42
2018-09-11T12:17:19.009Z,99420.95
2018-09-11T12:19:47.104Z,99419.02
2018-09-11T12:22:15.220Z,99415.48
2018-09-11T12:24:43.325Z,99426.23
2018-09-11T12:27:11.408Z,99423.94
2018-09-11T12:29:39.472Z,99430.91
2018-09-11T12:32:07.580Z,99429.31
2018-09-11T12:34:35.650Z,99420.77
2018-09-11T12:37:03.754Z,99413.39
2018-09-11T12:39:31.830Z,99409.45
2018-09-11T12:41:59.951Z,99415.55
2018-09-11T12:44:28.047Z,99410.86
2018-09-11T12:46:56.418Z,99418.02
2018-09-11T12:49:24.260Z,99408.89
2018-09-11T12:51:52.382Z,99407.21
2018-09-11T12:54:20.494Z,99412.95
2018-09-11T12:56:48.615Z,99413.58
2018-09-11T12:59:16.719Z,99403.95
2018-09-11T13:01:44.828Z,99404.41
2018-09-11T13:04:12.920Z,99407.33
2018-09-11T13:06:41.031Z,99399.95
2018-09-11T13:09:10.009Z,99402.27
2018-09-11T13:11:38.076Z,99392.02
2018-09-11T13:14:06.174Z,99390.31
2018-09-11T13:16:34.286Z,99379.96
2018-09-11T13:19:02.399Z,99388.82
2018-09-11T13:21:30.524Z,99383.80
2018-09-11T13:23:58.619Z,99381.16
2018-09-11T13:26:26.755Z,99375.94
2018-09-11T13:28:54.876Z,99381.86
2018-09-11T13:31:23.124Z,99386.34
2018-09-11T13:33:51.306Z,99386.05
2018-09-11T13:36:19.375Z,99382.86
2018-09-11T13:38:47.492Z,99372.23
2018-09-11T13:41:15.602Z,99362.47
2018-09-11T13:43:43.687Z,99375.89
2018-09-11T13:46:11.852Z,99371.83
2018-09-11T13:48:39.911Z,99370.86
2018-09-11T13:51:08.379Z,99372.62
2018-09-11T13:53:36.495Z,99363.98
2018-09-11T13:56:07.643Z,99370.66
2018-09-11T22:02:36.845Z,99382.89
2018-09-11T22:05:04.973Z,99381.35
2018-09-11T22:07:33.041Z,99385.80
2018-09-11T22:10:01.196Z,99386.93
2018-09-11T22:12:30.239Z,99380.08
2018-09-11T22:14:58.326Z,99376.09
2018-09-11T22:17:26.415Z,99384.32
2018-09-11T22:19:54.490Z,99381.13
2018-09-11T22:22:22.568Z,99381.14
2018-09-11T22:24:50.658Z,99377.64
2018-09-11T22:27:18.830Z,99374.98
2018-09-11T22:29:46.938Z,99374.89
2018-09-11T22:32:15.040Z,99373.64
2018-09-11T22:34:43.163Z,99373.81
2018-09-11T22:37:11.285Z,99370.27
2018-09-11T22:39:39.529Z,99374.35
2018-09-11T22:42:07.655Z,99376.80
2018-09-11T22:44:35.756Z,99379.00
2018-09-11T22:47:03.823Z,99378.22
2018-09-11T22:49:31.907Z,99379.91
2018-09-11T22:51:59.986Z,99377.94
2018-09-11T22:54:28.099Z,99378.24
2018-09-11T22:56:56.227Z,99375.19
2018-09-11T22:59:24.597Z,99370.78
2018-09-11T23:01:52.679Z,99376.80
2018-09-11T23:04:20.752Z,99366.73
2018-09-11T23:06:48.872Z,99376.33
2018-09-11T23:09:16.939Z,99378.43
2018-09-11T23:11:45.017Z,99371.58
2018-09-11T23:14:13.107Z,99374.61
2018-09-11T23:16:41.191Z,99377.03
2018-09-11T23:19:09.261Z,99383.27
2018-09-11T23:21:37.355Z,99376.42
2018-09-11T23:24:05.448Z,99382.35
2018-09-11T23:26:33.542Z,99386.96
2018-09-11T23:29:02.650Z,99380.14
2018-09-11T23:31:30.754Z,99379.08
2018-09-11T23:33:58.815Z,99376.07
2018-09-11T23:36:26.969Z,99382.36
2018-09-11T23:38:55.088Z,99381.92
2018-09-11T23:41:23.169Z,99373.78
2018-09-11T23:43:51.267Z,99380.67
2018-09-11T23:46:19.364Z,99372.12
2018-09-11T23:48:47.504Z,99375.53
2018-09-11T23:51:15.588Z,99375.80
2018-09-11T23:53:43.703Z,99368.27
2018-09-11T23:56:11.795Z,99368.20
2018-09-11T23:58:39.922Z,99367.21
